createdAt,value
2023-04-30T00:01:47.934Z,9.07
2023-04-30T00:04:15.804Z,9.20
2023-04-30T00:06:44.961Z,10.40
2023-04-30T00:09:12.752Z,9.23
2023-04-30T00:11:40.475Z,10.80
2023-04-30T00:14:08.198Z,10.23
2023-04-30T00:16:35.915Z,11.00
2023-04-30T00:19:03.669Z,8.13
2023-04-30T00:21:31.332Z,9.77
2023-04-30T00:24:00.780Z,9.10
2023-04-30T00:26:28.528Z,10.17
2023-04-30T00:28:56.385Z,8.50
2023-04-30T00:31:24.167Z,10.40
2023-04-30T00:33:51.940Z,11.40
2023-04-30T00:36:19.605Z,8.97
2023-04-30T00:38:47.308Z,9.90
2023-04-30T00:41:17.335Z,12.87
2023-04-30T00:43:46.883Z,8.77
2023-04-30T00:46:14.785Z,9.73
2023-04-30T00:48:42.517Z,8.73
2023-04-30T00:51:10.270Z,10.33
2023-04-30T00:53:39.366Z,10.07
2023-04-30T00:56:09.443Z,11.57
2023-04-30T00:58:38.522Z,9.40
2023-04-30T01:01:07.265Z,8.80
2023-04-30T01:03:36.103Z,9.97
2023-04-30T01:06:04.306Z,11.77
2023-04-30T01:08:32.792Z,12.23
2023-04-30T01:11:13.543Z,13.00
2023-04-30T01:13:51.773Z,12.77
2023-04-30T01:16:24.017Z,10.60
2023-04-30T01:18:56.032Z,11.80
2023-04-30T01:21:25.240Z,10.07
2023-04-30T01:24:16.724Z,13.60
2023-04-30T01:26:59.192Z,10.30
2023-04-30T01:29:28.228Z,11.37
2023-04-30T01:31:55.987Z,10.90
2023-04-30T01:34:23.703Z,10.37
2023-04-30T01:37:05.081Z,11.40
2023-04-30T01:39:48.165Z,14.17
2023-04-30T01:42:21.885Z,12.83
2023-04-30T01:45:10.556Z,14.87
2023-04-30T01:47:42.250Z,13.90
2023-04-30T01:50:19.937Z,14.53
2023-04-30T01:52:51.133Z,16.27
2023-04-30T01:55:25.048Z,16.63
2023-04-30T01:57:58.603Z,14.13
2023-04-30T02:00:28.547Z,13.37
2023-04-30T02:02:56.269Z,12.00
2023-04-30T02:05:24.303Z,17.00
2023-04-30T02:07:52.837Z,15.37
2023-04-30T02:10:22.706Z,15.13
2023-04-30T02:12:50.581Z,13.57
2023-04-30T02:15:18.340Z,14.10
2023-04-30T02:17:47.372Z,13.70
2023-04-30T02:20:15.091Z,13.33
2023-04-30T02:22:42.795Z,17.77
2023-04-30T02:25:12.494Z,14.70
2023-04-30T02:27:40.259Z,13.90
2023-04-30T02:30:09.063Z,19.37
2023-04-30T02:32:36.892Z,17.87
2023-04-30T02:35:06.760Z,16.30
2023-04-30T02:37:34.530Z,18.63
2023-04-30T02:40:02.295Z,15.20
2023-04-30T02:42:30.001Z,16.63
2023-04-30T02:44:57.660Z,17.47
2023-04-30T02:47:25.312Z,17.30
2023-04-30T02:49:53.340Z,12.70
2023-04-30T02:52:22.694Z,17.73
2023-04-30T02:54:50.959Z,17.10
2023-04-30T02:57:18.663Z,14.67
2023-04-30T02:59:46.512Z,16.33
2023-04-30T03:02:14.528Z,16.30
2023-04-30T03:04:42.322Z,16.83
2023-04-30T03:07:10.013Z,16.67
2023-04-30T03:09:39.138Z,15.80
2023-04-30T03:12:06.829Z,18.40
2023-04-30T03:14:34.540Z,15.03
2023-04-30T03:17:02.173Z,14.60
2023-04-30T03:19:29.920Z,15.83
2023-04-30T03:21:57.676Z,18.77
2023-04-30T03:24:25.429Z,16.87
2023-04-30T03:26:54.538Z,16.97
2023-04-30T03:29:22.422Z,16.97
2023-04-30T03:31:50.174Z,18.17
2023-04-30T03:34:17.868Z,19.33
2023-04-30T03:36:45.544Z,16.00
2023-04-30T03:39:13.300Z,16.13
2023-04-30T03:41:41.548Z,20.20
2023-04-30T03:44:16.053Z,17.63
2023-04-30T03:46:44.402Z,18.60
2023-04-30T03:49:12.364Z,20.40
2023-04-30T03:51:41.806Z,18.87
2023-04-30T03:54:10.027Z,20.60
2023-04-30T03:56:38.884Z,14.77
2023-04-30T03:59:07.134Z,18.87
2023-04-30T04:01:36.355Z,17.83
2023-04-30T04:04:04.565Z,13.10
2023-04-30T04:06:32.777Z,16.50
2023-04-30T04:09:00.566Z,17.17
2023-04-30T04:11:28.311Z,18.43
2023-04-30T04:13:56.043Z,16.97
2023-04-30T04:16:23.772Z,16.60
2023-04-30T04:18:52.848Z,18.37
2023-04-30T04:21:20.461Z,17.67
2023-04-30T04:23:48.250Z,15.50
2023-04-30T04:26:16.585Z,16.63
2023-04-30T04:28:44.296Z,16.37
2023-04-30T04:31:12.872Z,16.43
2023-04-30T04:33:40.698Z,15.73
2023-04-30T04:36:09.957Z,20.53
2023-04-30T04:38:37.633Z,17.20
2023-04-30T04:41:05.324Z,19.40
2023-04-30T04:43:33.033Z,17.10
2023-04-30T04:46:00.823Z,13.20
2023-04-30T04:48:28.599Z,17.07
2023-04-30T04:50:56.267Z,18.57
2023-04-30T04:53:25.564Z,17.33
2023-04-30T04:55:53.349Z,15.70
2023-04-30T04:58:21.050Z,16.53
2023-04-30T05:00:48.794Z,16.43
2023-04-30T05:03:16.652Z,13.33
2023-04-30T05:05:44.426Z,14.97
2023-04-30T05:08:12.181Z,25.70
2023-04-30T05:10:41.300Z,16.33
2023-04-30T05:13:09.072Z,16.20
2023-04-30T05:15:36.745Z,14.80
2023-04-30T05:18:04.805Z,16.60
2023-04-30T05:20:32.571Z,14.80
2023-04-30T05:23:00.299Z,16.10
2023-04-30T05:25:28.040Z,14.00
2023-04-30T05:27:57.332Z,17.40
2023-04-30T05:30:25.051Z,21.97
2023-04-30T05:32:52.944Z,15.73
2023-04-30T05:35:21.274Z,16.90
2023-04-30T05:37:49.093Z,14.60
2023-04-30T05:40:17.082Z,19.87
2023-04-30T05:42:45.928Z,16.17
2023-04-30T05:45:17.200Z,16.50
2023-04-30T05:47:45.360Z,14.47
2023-04-30T05:50:13.472Z,15.47
2023-04-30T05:52:41.223Z,16.60
2023-04-30T05:55:11.619Z,14.43
2023-04-30T05:57:39.419Z,17.70
2023-04-30T06:00:08.575Z,15.40
2023-04-30T06:02:37.749Z,14.47
2023-04-30T06:05:06.155Z,14.77
2023-04-30T06:07:33.836Z,15.43
2023-04-30T06:10:01.610Z,16.03
2023-04-30T06:12:29.467Z,14.50
2023-04-30T06:14:57.533Z,16.13
2023-04-30T06:17:25.299Z,15.60
2023-04-30T06:19:54.823Z,15.60
2023-04-30T06:22:22.707Z,14.97
2023-04-30T06:24:50.597Z,16.77
2023-04-30T06:27:18.424Z,17.47
2023-04-30T06:29:46.484Z,13.40
2023-04-30T06:32:14.195Z,13.50
2023-04-30T06:34:41.942Z,14.17
2023-04-30T06:37:10.993Z,14.83
2023-04-30T06:39:38.749Z,16.27
2023-04-30T06:42:06.493Z,16.80
2023-04-30T06:44:34.257Z,15.63
2023-04-30T06:47:02.606Z,12.70
2023-04-30T06:49:30.407Z,13.77
2023-04-30T06:51:58.560Z,12.40
2023-04-30T06:54:27.758Z,14.87
2023-04-30T06:56:55.576Z,19.33
2023-04-30T06:59:23.322Z,17.83
2023-04-30T07:01:51.164Z,14.93
2023-04-30T07:04:20.092Z,11.60
2023-04-30T07:06:47.844Z,13.17
2023-04-30T07:09:16.244Z,12.73
2023-04-30T07:11:45.379Z,15.83
2023-04-30T07:14:14.520Z,18.57
2023-04-30T07:16:42.190Z,14.50
2023-04-30T07:19:10.962Z,13.10
2023-04-30T07:21:38.630Z,13.27
2023-04-30T07:24:06.929Z,15.10
2023-04-30T07:26:34.678Z,12.63
2023-04-30T07:29:06.463Z,12.43
2023-04-30T07:31:34.505Z,12.17
2023-04-30T07:34:02.295Z,14.03
2023-04-30T07:36:30.097Z,12.73
2023-04-30T07:38:57.931Z,13.87
2023-04-30T07:41:26.153Z,10.47
2023-04-30T07:43:53.939Z,10.67
2023-04-30T07:46:23.092Z,11.97
2023-04-30T07:48:50.730Z,11.00
2023-04-30T07:51:18.468Z,12.00
2023-04-30T07:53:46.980Z,13.00
2023-04-30T07:56:14.706Z,15.50
2023-04-30T07:58:42.828Z,13.73
2023-04-30T08:01:10.692Z,12.80
2023-04-30T08:03:40.037Z,11.57
2023-04-30T08:06:08.218Z,11.93
2023-04-30T08:08:39.761Z,11.70
2023-04-30T08:11:07.669Z,12.60
2023-04-30T08:13:36.266Z,11.27
2023-04-30T08:16:04.028Z,9.00
2023-04-30T08:18:32.216Z,10.50
2023-04-30T08:21:01.459Z,8.03
2023-04-30T08:23:29.311Z,9.57
2023-04-30T08:25:57.139Z,9.77
2023-04-30T08:28:24.964Z,7.60
2023-04-30T08:30:52.674Z,7.20
2023-04-30T08:33:21.110Z,7.87
2023-04-30T08:35:48.997Z,9.30
2023-04-30T08:38:18.331Z,8.97
2023-04-30T08:40:53.733Z,9.07
2023-04-30T08:43:21.644Z,8.57
2023-04-30T08:45:52.003Z,7.33
2023-04-30T08:48:22.267Z,7.50
2023-04-30T08:50:50.334Z,6.53
2023-04-30T08:53:21.636Z,8.87
2023-04-30T08:55:49.510Z,7.90
2023-04-30T08:58:17.319Z,5.00
2023-04-30T09:00:45.039Z,6.43
2023-04-30T09:03:12.892Z,6.43
2023-04-30T09:05:41.763Z,6.23
2023-04-30T09:08:09.621Z,6.00
2023-04-30T09:10:39.075Z,5.83
2023-04-30T09:13:10.232Z,7.20
2023-04-30T09:15:41.139Z,5.73
2023-04-30T09:18:11.626Z,7.07
2023-04-30T09:20:54.378Z,6.20
2023-04-30T09:23:22.396Z,6.97
2023-04-30T09:25:51.811Z,7.90
2023-04-30T09:28:23.730Z,6.53
2023-04-30T09:30:52.549Z,7.57
2023-04-30T09:33:20.701Z,4.63
2023-04-30T09:35:48.964Z,7.27
2023-04-30T09:38:30.794Z,5.43
2023-04-30T09:41:02.126Z,4.73
2023-04-30T09:43:30.856Z,5.47
2023-04-30T09:46:00.767Z,8.10
2023-04-30T09:48:29.426Z,5.43
2023-04-30T09:50:57.311Z,4.77
2023-04-30T09:53:25.129Z,6.00
2023-04-30T09:55:53.107Z,3.97
2023-04-30T09:58:24.037Z,5.40
2023-04-30T10:00:53.946Z,5.33
2023-04-30T10:03:23.936Z,4.00
2023-04-30T10:05:53.143Z,5.10
2023-04-30T10:08:26.079Z,7.90
2023-04-30T10:11:00.658Z,5.07
2023-04-30T10:13:32.579Z,4.40
2023-04-30T10:16:05.617Z,3.80
2023-04-30T10:18:36.396Z,3.83
2023-04-30T10:21:10.335Z,5.30
2023-04-30T10:23:39.620Z,4.90
2023-04-30T10:26:08.204Z,4.73
2023-04-30T10:28:37.325Z,5.80
2023-04-30T10:31:06.082Z,6.30
2023-04-30T10:33:38.375Z,4.53
2023-04-30T10:36:09.130Z,4.10
2023-04-30T10:38:40.796Z,4.77
2023-04-30T10:41:09.682Z,7.17
2023-04-30T10:43:39.154Z,5.63
2023-04-30T10:46:06.869Z,4.37
2023-04-30T10:48:35.990Z,7.30
2023-04-30T10:51:03.893Z,4.57
2023-04-30T10:53:32.726Z,5.33
2023-04-30T10:56:06.576Z,5.37
2023-04-30T10:58:36.715Z,5.70
2023-04-30T11:01:09.556Z,7.23
2023-04-30T11:03:38.215Z,8.73
2023-04-30T11:06:13.448Z,7.93
2023-04-30T11:08:45.268Z,4.97
2023-04-30T11:11:15.004Z,7.60
2023-04-30T11:13:45.794Z,7.10
2023-04-30T11:16:17.265Z,6.90
2023-04-30T11:18:46.538Z,5.80
2023-04-30T11:21:14.958Z,8.80
2023-04-30T11:23:44.142Z,10.30
2023-04-30T11:26:12.395Z,6.70
2023-04-30T11:28:40.156Z,8.17
2023-04-30T11:31:07.986Z,8.30
2023-04-30T11:33:37.222Z,4.90
2023-04-30T11:36:05.486Z,4.37
2023-04-30T11:38:36.889Z,4.70
2023-04-30T11:41:06.260Z,6.90
2023-04-30T11:43:35.514Z,5.70
2023-04-30T11:46:06.260Z,7.17
2023-04-30T11:48:35.805Z,7.33
2023-04-30T11:51:15.888Z,19.77
2023-04-30T11:53:44.242Z,5.97
2023-04-30T11:56:12.386Z,9.10
2023-04-30T11:58:40.386Z,7.10
2023-04-30T12:01:09.817Z,6.13
2023-04-30T12:03:45.859Z,7.63
2023-04-30T12:06:23.277Z,5.23
2023-04-30T12:08:54.367Z,10.43
2023-04-30T12:11:26.134Z,9.13
2023-04-30T12:13:55.181Z,8.37
2023-04-30T12:16:24.023Z,4.90
2023-04-30T12:18:52.920Z,7.40
2023-04-30T12:21:23.782Z,5.03
2023-04-30T12:23:52.060Z,4.00
2023-04-30T12:26:19.848Z,4.70
2023-04-30T12:28:49.755Z,4.50
2023-04-30T12:31:18.982Z,6.17
2023-04-30T12:33:55.414Z,6.33
2023-04-30T12:36:31.667Z,5.50
2023-04-30T12:39:04.167Z,6.10
2023-04-30T12:41:32.683Z,6.37
2023-04-30T12:44:17.365Z,6.77
2023-04-30T12:46:46.692Z,5.60
2023-04-30T12:49:24.997Z,4.23
2023-04-30T12:51:59.374Z,6.20
2023-04-30T12:54:28.908Z,6.03
2023-04-30T12:57:01.448Z,4.90
2023-04-30T12:59:29.446Z,6.77
2023-04-30T13:01:57.265Z,5.00
2023-04-30T13:04:25.425Z,6.70
2023-04-30T13:06:54.534Z,4.40
2023-04-30T13:09:22.611Z,5.33
2023-04-30T13:11:50.788Z,5.30
2023-04-30T13:14:18.907Z,7.33
2023-04-30T13:16:47.809Z,5.83
2023-04-30T13:19:15.979Z,9.03
2023-04-30T13:21:43.856Z,8.27
2023-04-30T13:24:13.047Z,8.73
2023-04-30T13:26:40.814Z,7.50
2023-04-30T13:29:08.648Z,5.87
2023-04-30T13:31:37.188Z,5.77
2023-04-30T13:34:04.979Z,5.33
2023-04-30T13:36:37.294Z,5.63
2023-04-30T13:39:08.151Z,6.10
2023-04-30T13:41:37.856Z,7.13
2023-04-30T13:44:05.837Z,11.07
2023-04-30T13:46:34.013Z,5.80
2023-04-30T13:49:02.020Z,4.70
2023-04-30T13:51:29.917Z,6.43
2023-04-30T13:53:59.809Z,5.10
2023-04-30T13:56:30.143Z,5.00
2023-04-30T13:58:59.797Z,5.50
2023-04-30T14:01:28.509Z,5.03
2023-04-30T14:03:56.513Z,7.13
2023-04-30T14:06:24.712Z,11.67
2023-04-30T14:08:52.512Z,3.80
2023-04-30T14:11:21.744Z,5.03
2023-04-30T14:13:49.681Z,7.57
2023-04-30T14:16:19.573Z,5.30
2023-04-30T14:18:48.335Z,5.30
2023-04-30T14:21:16.260Z,6.10
2023-04-30T14:23:46.548Z,7.40
2023-04-30T14:26:14.870Z,4.17
2023-04-30T14:28:44.032Z,5.70
2023-04-30T14:31:14.058Z,4.50
2023-04-30T14:33:43.779Z,7.40
2023-04-30T14:36:11.757Z,4.67
2023-04-30T14:38:39.588Z,5.50
2023-04-30T14:41:07.466Z,5.00
2023-04-30T14:43:35.409Z,7.40
2023-04-30T14:46:03.473Z,5.20
2023-04-30T14:48:32.802Z,6.63
2023-04-30T14:51:02.134Z,8.77
2023-04-30T14:53:30.552Z,4.87
2023-04-30T14:55:58.657Z,7.20
2023-04-30T14:58:26.616Z,5.40
2023-04-30T15:00:54.553Z,4.80
2023-04-30T15:03:22.868Z,6.33
2023-04-30T15:05:51.775Z,5.03
2023-04-30T15:08:22.323Z,5.30
2023-04-30T15:10:50.230Z,6.40
2023-04-30T15:13:18.391Z,6.17
2023-04-30T15:15:47.236Z,8.70
2023-04-30T15:18:17.322Z,5.30
2023-04-30T15:20:47.419Z,6.80
2023-04-30T15:23:15.665Z,7.20
2023-04-30T15:25:46.158Z,5.80
2023-04-30T15:28:14.300Z,5.90
2023-04-30T15:30:45.349Z,6.60
2023-04-30T15:33:13.720Z,4.60
2023-04-30T15:35:41.973Z,5.60
2023-04-30T15:38:09.762Z,5.77
2023-04-30T15:40:37.910Z,5.73
2023-04-30T15:43:07.837Z,6.37
2023-04-30T15:45:35.664Z,6.07
2023-04-30T15:48:03.424Z,7.83
2023-04-30T15:50:31.346Z,5.90
2023-04-30T15:52:59.734Z,9.83
2023-04-30T15:55:27.560Z,7.07
2023-04-30T15:57:55.302Z,11.10
2023-04-30T16:00:25.011Z,5.90
2023-04-30T16:02:53.126Z,8.67
2023-04-30T16:05:21.193Z,7.37
2023-04-30T16:07:48.959Z,5.23
2023-04-30T16:10:16.973Z,4.87
2023-04-30T16:12:44.703Z,4.07
2023-04-30T16:15:12.868Z,5.17
2023-04-30T16:17:42.201Z,6.90
2023-04-30T16:20:10.818Z,4.67
2023-04-30T16:22:38.642Z,5.03
2023-04-30T16:25:09.884Z,5.27
2023-04-30T16:27:37.699Z,7.33
2023-04-30T16:30:06.709Z,5.40
2023-04-30T16:32:34.526Z,5.20
2023-04-30T16:35:03.817Z,6.53
2023-04-30T16:37:31.863Z,5.60
2023-04-30T16:40:00.447Z,5.03
2023-04-30T16:42:30.139Z,5.63
2023-04-30T16:44:59.036Z,4.90
2023-04-30T16:47:26.917Z,5.40
2023-04-30T16:49:57.183Z,4.77
2023-04-30T16:52:26.750Z,8.23
2023-04-30T16:54:54.714Z,4.90
2023-04-30T16:57:23.757Z,6.10
2023-04-30T16:59:51.707Z,7.60
2023-04-30T17:02:19.651Z,6.70
2023-04-30T17:04:49.684Z,6.07
2023-04-30T17:07:18.950Z,8.17
2023-04-30T17:09:48.118Z,5.53
2023-04-30T17:12:15.867Z,6.63
2023-04-30T17:14:43.651Z,6.60
2023-04-30T17:17:11.797Z,4.80
2023-04-30T17:19:40.342Z,6.60
2023-04-30T17:22:09.643Z,6.03
2023-04-30T17:24:38.323Z,8.80
2023-04-30T17:27:08.043Z,4.97
2023-04-30T17:29:36.342Z,5.47
2023-04-30T17:32:05.201Z,6.93
2023-04-30T17:34:33.283Z,7.97
2023-04-30T17:37:01.145Z,5.43
2023-04-30T17:39:32.439Z,4.63
2023-04-30T17:42:00.844Z,5.90
2023-04-30T17:44:31.781Z,6.30
2023-04-30T17:46:59.535Z,5.40
2023-04-30T17:49:27.969Z,4.80
2023-04-30T17:51:55.833Z,28.47
2023-04-30T17:54:23.562Z,4.63
2023-04-30T17:56:51.564Z,7.73
2023-04-30T17:59:19.390Z,5.60
2023-04-30T18:01:48.562Z,5.60
2023-04-30T18:04:17.616Z,4.33
2023-04-30T18:06:45.402Z,4.80
2023-04-30T18:09:13.180Z,4.00
2023-04-30T18:11:41.005Z,6.13
2023-04-30T18:14:09.022Z,5.40
2023-04-30T18:16:36.876Z,9.50
2023-04-30T18:19:06.090Z,5.80
2023-04-30T18:21:34.267Z,5.53
2023-04-30T18:24:05.750Z,4.97
2023-04-30T18:26:33.512Z,4.63
2023-04-30T18:29:01.245Z,5.03
2023-04-30T18:31:29.570Z,5.37
2023-04-30T18:33:57.442Z,9.97
2023-04-30T18:36:26.984Z,6.17
2023-04-30T18:38:54.839Z,7.87
2023-04-30T18:41:23.355Z,8.30
2023-04-30T18:43:51.293Z,6.90
2023-04-30T18:46:19.105Z,7.00
2023-04-30T18:48:46.869Z,6.43
2023-04-30T18:51:14.710Z,6.47
2023-04-30T18:53:45.222Z,5.57
2023-04-30T18:56:13.202Z,5.03
2023-04-30T18:58:43.073Z,5.70
2023-04-30T19:01:10.931Z,6.07
2023-04-30T19:03:39.248Z,4.87
2023-04-30T19:06:07.470Z,5.20
2023-04-30T19:08:35.741Z,6.47
2023-04-30T19:11:05.041Z,5.83
2023-04-30T19:13:32.829Z,7.30
2023-04-30T19:16:03.418Z,8.93
2023-04-30T19:18:31.923Z,6.00
2023-04-30T19:21:01.881Z,7.37
2023-04-30T19:23:31.737Z,7.90
2023-04-30T19:26:00.046Z,5.83
2023-04-30T19:28:29.272Z,6.63
2023-04-30T19:30:57.477Z,6.80
2023-04-30T19:33:26.237Z,7.03
2023-04-30T19:35:59.897Z,6.57
2023-04-30T19:38:27.664Z,8.63
2023-04-30T19:40:55.910Z,6.70
2023-04-30T19:43:24.280Z,8.00
2023-04-30T19:45:54.824Z,8.30
2023-04-30T19:48:23.122Z,7.10
2023-04-30T19:50:53.493Z,10.20
2023-04-30T19:53:22.225Z,9.27
2023-04-30T19:55:50.018Z,8.53
2023-04-30T19:58:17.827Z,6.70
2023-04-30T20:00:46.538Z,9.17
2023-04-30T20:03:17.366Z,6.97
2023-04-30T20:05:45.955Z,8.70
2023-04-30T20:08:13.672Z,9.23
2023-04-30T20:10:42.836Z,7.70
2023-04-30T20:13:11.295Z,6.63
2023-04-30T20:15:39.084Z,6.33
2023-04-30T20:18:06.887Z,7.67
2023-04-30T20:20:36.286Z,8.03
2023-04-30T20:23:13.906Z,6.70
2023-04-30T20:25:43.062Z,5.80
2023-04-30T20:28:10.872Z,7.03
2023-04-30T20:30:39.694Z,7.07
2023-04-30T20:33:08.049Z,8.33
2023-04-30T20:35:37.234Z,9.13
2023-04-30T20:38:06.131Z,9.40
2023-04-30T20:40:33.880Z,9.93
2023-04-30T20:43:01.925Z,9.93
2023-04-30T20:45:29.884Z,13.13
2023-04-30T20:47:57.825Z,8.83
2023-04-30T20:50:25.852Z,12.67
2023-04-30T20:52:54.975Z,12.10
2023-04-30T20:55:22.720Z,12.57
2023-04-30T20:57:51.022Z,9.80
2023-04-30T21:00:18.875Z,9.50
2023-04-30T21:02:46.952Z,9.47
2023-04-30T21:05:14.768Z,8.30
2023-04-30T21:07:42.422Z,8.27
2023-04-30T21:10:12.410Z,8.50
2023-04-30T21:12:40.578Z,11.87
2023-04-30T21:15:09.895Z,12.13
2023-04-30T21:17:37.864Z,10.00
2023-04-30T21:20:06.221Z,8.80
2023-04-30T21:22:34.294Z,9.47
2023-04-30T21:25:02.088Z,9.73
2023-04-30T21:27:31.252Z,14.00
2023-04-30T21:29:58.979Z,9.57
2023-04-30T21:32:27.214Z,12.90
2023-04-30T21:34:55.261Z,12.87
2023-04-30T21:37:23.362Z,9.20
2023-04-30T21:39:51.038Z,13.20
2023-04-30T21:42:18.707Z,13.00
2023-04-30T21:44:48.536Z,13.13
2023-04-30T21:47:16.593Z,9.00
2023-04-30T21:49:44.325Z,19.30
2023-04-30T21:52:12.041Z,14.03
2023-04-30T21:54:39.703Z,12.13
2023-04-30T21:57:07.406Z,12.57
2023-04-30T21:59:35.482Z,9.63
2023-04-30T22:02:13.058Z,23.40
2023-04-30T22:04:50.280Z,11.60
2023-04-30T22:07:17.998Z,12.07
2023-04-30T22:09:46.117Z,20.70
2023-04-30T22:12:13.823Z,26.43
2023-04-30T22:14:41.516Z,20.23
2023-04-30T22:17:10.672Z,19.63
2023-04-30T22:19:38.582Z,18.23
2023-04-30T22:22:06.266Z,18.03
2023-04-30T22:24:34.359Z,15.03
2023-04-30T22:27:03.609Z,16.10
2023-04-30T22:29:31.952Z,15.97
2023-04-30T22:32:00.529Z,12.27
2023-04-30T22:34:30.640Z,11.20
2023-04-30T22:36:58.333Z,15.30
2023-04-30T22:39:26.521Z,37.20
2023-04-30T22:41:54.548Z,10.60
2023-04-30T22:44:22.557Z,13.10
2023-04-30T22:46:50.890Z,10.10
2023-04-30T22:49:27.605Z,12.27
2023-04-30T22:52:01.359Z,15.87
2023-04-30T22:54:29.248Z,10.73
2023-04-30T22:56:58.221Z,12.70
2023-04-30T22:59:26.192Z,14.90
2023-04-30T23:01:54.088Z,12.30
2023-04-30T23:04:22.658Z,10.50
2023-04-30T23:06:50.593Z,10.67
2023-04-30T23:09:19.932Z,12.63
2023-04-30T23:11:48.241Z,10.30
2023-04-30T23:14:16.035Z,12.33
2023-04-30T23:16:43.736Z,12.67
2023-04-30T23:19:11.807Z,11.13
2023-04-30T23:21:39.467Z,11.63
2023-04-30T23:24:07.205Z,11.57
2023-04-30T23:26:36.318Z,10.87
2023-04-30T23:29:04.470Z,10.63
2023-04-30T23:31:32.249Z,10.70
2023-04-30T23:34:00.057Z,11.07
2023-04-30T23:36:27.695Z,9.87
2023-04-30T23:38:55.374Z,10.20
2023-04-30T23:41:23.036Z,11.43
2023-04-30T23:43:52.116Z,12.60
2023-04-30T23:46:20.619Z,14.67
2023-04-30T23:48:49.667Z,9.30
2023-04-30T23:51:18.714Z,11.30
2023-04-30T23:53:46.443Z,10.80
2023-04-30T23:56:14.113Z,11.60
2023-04-30T23:58:41.797Z,10.63
